Kezdőlap
METAR-TAF:

METAR-TAF

Repülőterek :

Dnipropetrovsk, Ukrajna

földrajzi szélesség: 48-21-26N, földrajzi hosszúság: 035-06-02E, magasság: 147 m

Jelenlegi meteorológiai megfigyelések

A jelentés 13 perccel ezelõtt készült, 21:30 UTC
Kelet-északkeleti szél 10 kt
Hőmérséklet -4°C
Páratartalom 74%
Légköri nyomás 1038 hPa
Látótávolság 10 km, vagy több
Szakadozott felhőzet 1700 lábon

METAR: UKDD 122130Z 07005MPS 9999 BKN017 M04/M08 Q1038 R08/090070 NOSIG

Idő: 23:43 (21:43 UTC)

Előrejelzés

A jelentés 4 órával és 41 perccel ezelõtt készült, 17:02 UTC
Az előrejelzés 12-én 18 óra UTC és 13-én 18 óra UTC között érvényes
Kelet-északkeleti szél 12 kt széllökések: 21 kt
Látótávolság 10 km, vagy több
Szakadozott felhőzet 1100 lábon

TAF: UKDD 121702Z 1218/1318 07006G11MPS 9999 BKN011 TX01/1312Z TNM05/1305Z

Meteorológiai megfigyelések és előrejelzések több, mint 4000 repülőtéren (METAR és TAF jelentéseket).

A térképen piros és sárga pontok jelzik az elérhető meteorológiai állomásokat.

Mozgassa az egeret a pont fölött, hogy megjelenjen az állomás neve.

Azután kattintson az időjárási megfigyelések és előrejelzések megtekintéséhez.

A térkép megváltoztatása: kattintson a fekete keresztel jelölt zöld gombra ráközelítéshez, a vonallal jelölt zöld gombra távolításhoz, vagy a zöld nyilakra a szomszédos térképek eléréséhez.


METAR-TAF: